Time;durP1;ratioP1;P1;durP2;ratioP2;P2;SDS_P1;SDS_P2;PMS_P1;PMS_P2;Temp;Humidity;BMP_temperature;BMP_pressure;BME280_temperature;BME280_humidity;BME280_pressure;Samples;Min_cycle;Max_cycle;Signal;HPM_P1;HPM_P2
2023/06/02 00:02:13;;;;;;;;;;;;;;;15.97;57.03;100625.56;5076106;28;1023;-52
2023/06/02 00:04:40;;;;;;;;;;;;;;;17.14;58.15;100623.78;5076061;28;1189;-54
2023/06/02 00:07:07;;;;;;;;;;;;;;;17.02;58.34;100618.56;5079604;28;1139;-53
2023/06/02 00:09:39;;;;;;;;;;;;;;;16.56;58.39;100619.50;5077548;28;1083;-51
2023/06/02 00:12:05;;;;;;;;;;;;;;;16.36;58.11;100623.09;5075648;28;1918;-49
2023/06/02 00:14:31;;;;;;;;;;;;;;;16.26;57.64;100620.38;5079265;28;1236;-49
2023/06/02 00:17:00;;;;;;;;;;;;;;;16.15;57.61;100614.03;5079570;28;1050;-52
2023/06/02 00:19:30;;;;;;;;;;;;;;;16.05;57.15;100617.63;5091654;28;1118;-53
2023/06/02 00:21:56;;;;;;;;;;;;;;;16.02;57.14;100615.44;5078194;28;908;-54
2023/06/02 00:24:22;;;;;;;;;;;;;;;17.25;58.51;100621.78;5079254;28;1127;-51
2023/06/02 00:26:48;;;;;;;;;;;;;;;16.90;58.64;100618.91;5079544;28;1178;-53
2023/06/02 00:29:13;;;;;;;;;;;;;;;16.54;58.39;100616.22;5078510;28;1156;-50
2023/06/02 00:31:39;;;;;;;;;;;;;;;16.31;58.00;100614.03;5084914;28;1991;-56
2023/06/02 00:34:04;;;;;;;;;;;;;;;16.25;57.59;100615.97;5061425;28;1234;-54
2023/06/02 00:36:30;;;;;;;;;;;;;;;16.16;57.42;100621.19;5079356;28;1055;-53
2023/06/02 00:38:55;;;;;;;;;;;;;;;16.06;57.23;100618.44;5078948;28;1106;-52
2023/06/02 00:41:21;;;;;;;;;;;;;;;15.98;57.18;100610.78;5091916;28;1205;-51
2023/06/02 00:43:47;;;;;;;;;;;;;;;15.92;56.84;100607.16;5092868;28;1062;-51
2023/06/02 00:46:12;;;;;;;;;;;;;;;15.91;57.36;100611.03;5061072;28;1115;-50
2023/06/02 00:48:38;;;;;;;;;;;;;;;17.23;58.36;100610.25;5078379;28;1141;-54
2023/06/02 00:51:04;;;;;;;;;;;;;;;16.92;58.83;100613.13;5078807;28;1898;-54
2023/06/02 00:53:30;;;;;;;;;;;;;;;16.53;58.78;100619.22;5078912;28;1091;-55
2023/06/02 00:55:55;;;;;;;;;;;;;;;16.34;58.17;100617.06;5056763;28;1020;-54
2023/06/02 00:58:21;;;;;;;;;;;;;;;16.18;57.98;100615.44;5039205;28;1127;-54
2023/06/02 01:00:47;;;;;;;;;;;;;;;16.13;57.44;100607.19;5052810;28;1155;-55
2023/06/02 01:03:14;;;;;;;;;;;;;;;16.04;57.32;100605.00;5078799;28;1117;-50
2023/06/02 01:05:40;;;;;;;;;;;;;;;17.01;58.74;100605.13;5060703;28;1070;-51
2023/06/02 01:08:05;;;;;;;;;;;;;;;17.02;58.63;100612.28;5079520;28;873;-53
2023/06/02 01:10:31;;;;;;;;;;;;;;;16.58;58.47;100609.06;5078631;28;1161;-47
2023/06/02 01:12:57;;;;;;;;;;;;;;;16.40;58.27;100604.97;5078566;28;1914;-51
2023/06/02 01:15:22;;;;;;;;;;;;;;;16.25;57.79;100607.72;5060943;28;1359;-52
2023/06/02 01:17:50;;;;;;;;;;;;;;;16.13;57.63;100607.19;5060367;28;1070;-53
2023/06/02 01:20:16;;;;;;;;;;;;;;;16.07;57.34;100604.47;5077978;28;973;-49
2023/06/02 01:23:02;;;;;;;;;;;;;;;15.97;57.10;100601.69;5078490;28;1082;-51
2023/06/02 01:25:28;;;;;;;;;;;;;;;16.63;58.43;100599.97;5060211;28;1343;-53
2023/06/02 01:27:57;;;;;;;;;;;;;;;17.20;58.29;100599.84;5078110;28;1101;-49
2023/06/02 01:30:22;;;;;;;;;;;;;;;16.56;58.92;100600.31;5078258;28;1039;-50
2023/06/02 01:33:06;;;;;;;;;;;;;;;16.37;58.25;100600.03;5048665;28;1990;-53
2023/06/02 01:35:34;;;;;;;;;;;;;;;16.22;57.66;100608.28;5059985;28;1023;-50
2023/06/02 01:37:59;;;;;;;;;;;;;;;16.13;57.61;100604.44;5060656;28;1433;-54
2023/06/02 01:40:25;;;;;;;;;;;;;;;16.03;57.42;100603.38;5060248;28;1087;-54
2023/06/02 01:42:51;;;;;;;;;;;;;;;16.03;57.08;100608.84;5066467;28;1028;-54
2023/06/02 01:45:17;;;;;;;;;;;;;;;17.11;58.62;100602.34;5062903;28;1098;-56
2023/06/02 01:47:42;;;;;;;;;;;;;;;16.98;58.56;100605.69;5051328;28;1017;-55
2023/06/02 01:50:09;;;;;;;;;;;;;;;16.55;58.46;100603.28;5053735;28;1135;-56
2023/06/02 01:52:35;;;;;;;;;;;;;;;16.34;58.10;100597.84;5069069;28;1905;-56
2023/06/02 01:55:00;;;;;;;;;;;;;;;16.22;57.63;100608.28;5062017;28;1289;-56
2023/06/02 01:57:27;;;;;;;;;;;;;;;16.13;57.48;100601.69;5060401;28;1380;-56
2023/06/02 01:59:53;;;;;;;;;;;;;;;16.04;57.29;100607.72;5059902;28;1275;-56
2023/06/02 02:02:19;;;;;;;;;;;;;;;16.01;56.89;100607.47;5059588;28;1528;-56
2023/06/02 02:04:45;;;;;;;;;;;;;;;15.93;57.11;100605.28;5077280;28;1054;-56
2023/06/02 02:07:13;;;;;;;;;;;;;;;17.13;58.47;100600.13;5085263;28;1134;-56
2023/06/02 02:09:39;;;;;;;;;;;;;;;17.01;58.65;100602.38;5078997;28;1047;-56
2023/06/02 02:12:05;;;;;;;;;;;;;;;16.53;58.76;100598.09;5077584;28;1980;-54
2023/06/02 02:14:31;;;;;;;;;;;;;;;16.34;58.10;100597.03;5077299;28;1074;-55
2023/06/02 02:17:00;;;;;;;;;;;;;;;16.22;57.66;100595.38;5077536;28;1189;-55
2023/06/02 02:19:31;;;;;;;;;;;;;;;16.11;57.75;100601.97;5058388;28;1142;-54
2023/06/02 02:21:57;;;;;;;;;;;;;;;16.00;57.52;100592.91;5069436;28;1093;-55
2023/06/02 02:24:22;;;;;;;;;;;;;;;16.01;57.35;100593.75;5077215;28;1109;-55
2023/06/02 02:26:48;;;;;;;;;;;;;;;17.28;58.54;100594.56;5077016;28;1069;-55
2023/06/02 02:29:13;;;;;;;;;;;;;;;16.89;58.72;100586.22;5077173;28;1205;-55
2023/06/02 02:31:39;;;;;;;;;;;;;;;16.47;58.63;100590.16;5068562;28;1906;-55
2023/06/02 02:34:04;;;;;;;;;;;;;;;16.31;58.04;100592.91;5077900;28;1057;-55
2023/06/02 02:36:32;;;;;;;;;;;;;;;16.23;57.46;100593.47;5059136;28;1173;-55
2023/06/02 02:38:57;;;;;;;;;;;;;;;16.11;57.50;100595.69;5059122;28;1349;-54
2023/06/02 02:41:23;;;;;;;;;;;;;;;16.01;57.11;100594.56;5059071;28;1381;-55
2023/06/02 02:43:49;;;;;;;;;;;;;;;16.24;58.04;100604.19;5076517;28;1006;-56
2023/06/02 02:46:16;;;;;;;;;;;;;;;17.49;58.06;100610.97;5058488;28;1433;-56
2023/06/02 02:48:42;;;;;;;;;;;;;;;16.74;59.00;100617.25;5059155;28;1132;-55
2023/06/02 02:51:07;;;;;;;;;;;;;;;16.43;58.59;100620.88;5059283;28;1902;-55
2023/06/02 02:53:33;;;;;;;;;;;;;;;16.33;57.95;100623.66;5058285;28;1221;-54
2023/06/02 02:56:00;;;;;;;;;;;;;;;16.21;57.60;100614.88;5070048;28;1110;-55
2023/06/02 02:58:26;;;;;;;;;;;;;;;16.05;57.30;100623.09;5058904;28;1078;-53
2023/06/02 03:00:52;;;;;;;;;;;;;;;16.07;57.65;100625.56;5076644;28;1178;-51
2023/06/02 03:03:20;;;;;;;;;;;;;;;17.36;58.52;100622.56;5058285;28;1429;-53
2023/06/02 03:05:49;;;;;;;;;;;;;;;16.77;58.97;100624.94;5058477;28;1123;-52
2023/06/02 03:08:17;;;;;;;;;;;;;;;16.46;58.44;100624.19;5064813;28;1135;-50
2023/06/02 03:10:44;;;;;;;;;;;;;;;16.29;57.93;100622.56;5058371;28;1472;-52
2023/06/02 03:13:11;;;;;;;;;;;;;;;16.24;57.60;100630.78;5063120;28;1982;-54
2023/06/02 03:15:37;;;;;;;;;;;;;;;16.14;57.12;100622.56;5058495;28;1323;-56
2023/06/02 03:18:03;;;;;;;;;;;;;;;16.03;57.06;100619.81;5058592;28;1373;-56
2023/06/02 03:20:29;;;;;;;;;;;;;;;16.88;58.78;100623.00;5058335;28;1317;-55
2023/06/02 03:22:55;;;;;;;;;;;;;;;17.05;58.53;100630.94;5058240;28;1237;-51
2023/06/02 03:25:21;;;;;;;;;;;;;;;16.56;58.55;100621.41;5058047;28;2091;-52
2023/06/02 03:27:49;;;;;;;;;;;;;;;16.39;58.26;100624.47;5076172;28;1163;-54
2023/06/02 03:30:15;;;;;;;;;;;;;;;16.24;57.84;100619.81;5057800;28;1166;-54
2023/06/02 03:32:40;;;;;;;;;;;;;;;16.11;57.50;100618.44;5049455;28;1910;-56
2023/06/02 03:35:07;;;;;;;;;;;;;;;16.07;57.15;100609.94;5065062;28;1167;-55
2023/06/02 03:37:36;;;;;;;;;;;;;;;16.99;58.49;100618.34;5038537;28;1314;-54
2023/06/02 03:40:04;;;;;;;;;;;;;;;16.99;58.69;100610.91;5052727;28;1103;-53
2023/06/02 03:42:30;;;;;;;;;;;;;;;16.55;58.62;100604.13;5057929;28;1442;-49
2023/06/02 03:44:56;;;;;;;;;;;;;;;16.39;58.27;100605.25;5067885;28;1548;-48
2023/06/02 03:47:21;;;;;;;;;;;;;;;16.24;57.66;100608.81;5044127;28;1975;-50
2023/06/02 03:49:48;;;;;;;;;;;;;;;16.12;57.56;100603.63;5034775;28;1378;-49
2023/06/02 03:52:13;;;;;;;;;;;;;;;16.07;57.29;100609.94;5034976;28;1973;-49
2023/06/02 03:54:39;;;;;;;;;;;;;;;16.04;57.20;100612.41;5034518;28;1159;-54
2023/06/02 03:57:05;;;;;;;;;;;;;;;15.93;56.93;100605.28;5027030;28;936;-49
2023/06/02 03:59:31;;;;;;;;;;;;;;;16.13;58.05;100607.19;5030770;28;1155;-56
2023/06/02 04:01:56;;;;;;;;;;;;;;;17.44;58.27;100616.47;5031321;28;1223;-58
2023/06/02 04:04:22;;;;;;;;;;;;;;;16.82;58.74;100624.94;5025927;28;1199;-54
2023/06/02 04:06:47;;;;;;;;;;;;;;;16.50;58.62;100622.53;5035955;28;1153;-52
2023/06/02 04:09:13;;;;;;;;;;;;;;;16.30;58.16;100617.88;5042960;28;1026;-53
2023/06/02 04:11:40;;;;;;;;;;;;;;;16.23;57.69;100613.50;5034598;28;1898;-53
2023/06/02 04:14:06;;;;;;;;;;;;;;;16.14;57.37;100631.59;5034616;28;1173;-54
2023/06/02 04:16:32;;;;;;;;;;;;;;;16.04;57.25;100618.69;5034211;28;1549;-51
2023/06/02 04:18:58;;;;;;;;;;;;;;;15.97;57.17;100620.91;5034703;28;1219;-51
2023/06/02 04:21:24;;;;;;;;;;;;;;;16.72;58.35;100619.47;5035406;28;1241;-53
2023/06/02 04:23:50;;;;;;;;;;;;;;;17.12;58.54;100622.41;5034613;28;1167;-55
2023/06/02 04:26:17;;;;;;;;;;;;;;;16.54;58.64;100618.16;5033901;28;1163;-54
2023/06/02 04:28:42;;;;;;;;;;;;;;;16.41;58.10;100617.59;5034413;28;1296;-53
2023/06/02 04:31:11;;;;;;;;;;;;;;;16.25;57.63;100613.22;5034459;28;1981;-55
2023/06/02 04:33:41;;;;;;;;;;;;;;;16.16;57.49;100612.13;5022945;28;1138;-54
2023/06/02 04:36:10;;;;;;;;;;;;;;;16.06;57.22;100615.69;5023778;28;1244;-56
2023/06/02 04:38:37;;;;;;;;;;;;;;;16.01;57.04;100613.78;5023932;28;1422;-56
2023/06/02 04:41:05;;;;;;;;;;;;;;;17.05;58.53;100618.00;5027967;28;1155;-56
2023/06/02 04:43:34;;;;;;;;;;;;;;;17.11;58.45;100607.84;5035073;28;1454;-56
2023/06/02 04:46:01;;;;;;;;;;;;;;;16.58;58.80;100608.25;5025437;28;1165;-55
2023/06/02 04:48:28;;;;;;;;;;;;;;;16.41;58.32;100612.13;5062414;28;1163;-56
2023/06/02 04:50:54;;;;;;;;;;;;;;;16.29;57.98;100617.06;5075298;28;1906;-56
2023/06/02 04:53:20;;;;;;;;;;;;;;;16.20;57.42;100613.22;5057482;28;1130;-55
2023/06/02 04:55:46;;;;;;;;;;;;;;;16.09;57.50;100617.91;5045519;28;1281;-53
2023/06/02 04:58:13;;;;;;;;;;;;;;;16.89;57.34;100619.19;5040500;28;1297;-55
2023/06/02 05:00:39;;;;;;;;;;;;;;;17.19;55.86;100612.72;5040690;28;1202;-53
2023/06/02 05:03:06;;;;;;;;;;;;;;;16.72;55.47;100608.50;5041106;28;1653;-55
2023/06/02 05:05:32;;;;;;;;;;;;;;;18.30;54.52;100610.66;5053941;28;1273;-54
2023/06/02 05:07:57;;;;;;;;;;;;;;;17.20;54.72;100608.09;5063298;28;1565;-53
2023/06/02 05:10:25;;;;;;;;;;;;;;;16.87;52.77;100615.84;5054024;28;1173;-55
2023/06/02 05:12:53;;;;;;;;;;;;;;;18.14;54.98;100612.72;5044292;28;1977;-59
2023/06/02 05:15:19;;;;;;;;;;;;;;;17.50;54.43;100609.00;5054322;28;1112;-56
2023/06/02 05:17:45;;;;;;;;;;;;;;;17.10;52.78;100598.78;5050930;28;1286;-56
2023/06/02 05:20:12;;;;;;;;;;;;;;;18.03;54.78;100603.72;5042736;28;1226;-56
2023/06/02 05:22:38;;;;;;;;;;;;;;;17.28;53.71;100605.56;5040018;28;1290;-58
2023/06/02 05:25:05;;;;;;;;;;;;;;;17.07;52.05;100596.59;5040611;28;1219;-57
2023/06/02 05:27:31;;;;;;;;;;;;;;;16.95;50.79;100607.06;5039901;28;1223;-55
2023/06/02 05:29:57;;;;;;;;;;;;;;;17.51;52.37;100603.22;5040207;28;1273;-54
2023/06/02 05:32:24;;;;;;;;;;;;;;;17.49;52.97;100601.88;5067627;28;1917;-53
2023/06/02 05:34:51;;;;;;;;;;;;;;;17.12;51.64;100595.75;5056658;28;1138;-56
2023/06/02 05:37:18;;;;;;;;;;;;;;;18.04;52.58;100608.13;5058765;28;1154;-56
2023/06/02 05:39:43;;;;;;;;;;;;;;;17.56;52.53;100607.91;5070454;28;1059;-56
2023/06/02 05:42:09;;;;;;;;;;;;;;;17.26;51.30;100602.28;5059679;28;1070;-56
2023/06/02 05:44:35;;;;;;;;;;;;;;;17.18;50.27;100605.63;5083698;28;1161;-56
2023/06/02 05:47:00;;;;;;;;;;;;;;;17.92;52.63;100602.16;5060802;28;1216;-54
2023/06/02 05:49:26;;;;;;;;;;;;;;;17.48;51.55;100600.25;5060093;28;1323;-56
2023/06/02 05:51:52;;;;;;;;;;;;;;;17.29;50.34;100600.88;5077965;28;1905;-55
2023/06/02 05:54:18;;;;;;;;;;;;;;;17.91;51.49;100595.03;5056352;28;1292;-54
2023/06/02 05:56:44;;;;;;;;;;;;;;;17.86;51.79;100603.28;5067475;28;1091;-54
2023/06/02 05:59:11;;;;;;;;;;;;;;;17.52;50.68;100599.38;5059885;28;1241;-52
2023/06/02 06:01:37;;;;;;;;;;;;;;;17.22;49.85;100594.88;5059905;28;1916;-53
2023/06/02 06:04:02;;;;;;;;;;;;;;;17.19;49.11;100596.25;5077707;28;1142;-52
2023/06/02 06:06:28;;;;;;;;;;;;;;;18.09;50.99;100597.09;5058341;28;1165;-53
2023/06/02 06:08:54;;;;;;;;;;;;;;;17.57;50.80;100606.78;5083874;28;1122;-51
2023/06/02 06:11:20;;;;;;;;;;;;;;;17.35;49.50;100605.25;5063011;28;1975;-46
2023/06/02 06:13:46;;;;;;;;;;;;;;;17.24;48.97;100592.69;5056841;28;1359;-50
2023/06/02 06:16:11;;;;;;;;;;;;;;;17.64;49.68;100595.47;5048698;28;1574;-51
2023/06/02 06:18:38;;;;;;;;;;;;;;;17.76;50.62;100599.50;5059403;28;1225;-54
2023/06/02 06:21:04;;;;;;;;;;;;;;;17.40;49.86;100586.00;5084618;28;1234;-54
2023/06/02 06:23:29;;;;;;;;;;;;;;;17.27;48.91;100594.84;5063087;28;1322;-54
2023/06/02 06:25:56;;;;;;;;;;;;;;;17.18;48.29;100589.13;5059292;28;1317;-47
2023/06/02 06:28:21;;;;;;;;;;;;;;;17.20;47.83;100591.59;5059316;28;1122;-51
2023/06/02 06:30:48;;;;;;;;;;;;;;;18.11;49.72;100599.53;5059318;28;1217;-53
2023/06/02 06:33:15;;;;;;;;;;;;;;;17.56;49.69;100583.16;5067045;28;1898;-52
2023/06/02 06:35:40;;;;;;;;;;;;;;;17.32;49.09;100589.34;5073936;28;1269;-53
2023/06/02 06:38:08;;;;;;;;;;;;;;;17.88;50.32;100587.31;5059217;28;1347;-49
2023/06/02 06:40:34;;;;;;;;;;;;;;;17.49;49.79;100590.88;5058786;28;1200;-51
2023/06/02 06:42:59;;;;;;;;;;;;;;;17.36;48.67;100595.06;5059123;28;1239;-50
2023/06/02 06:45:46;;;;;;;;;;;;;;;18.24;50.07;100596.13;5048784;28;1040;-52
2023/06/02 06:48:12;;;;;;;;;;;;;;;17.69;49.79;100590.75;5056483;28;1199;-54
2023/06/02 06:50:37;;;;;;;;;;;;;;;17.42;49.06;100585.72;5056354;28;1214;-56
2023/06/02 06:53:05;;;;;;;;;;;;;;;17.40;48.46;100588.75;5056475;28;1991;-56
2023/06/02 06:55:31;;;;;;;;;;;;;;;17.28;47.87;100593.75;5056214;28;1198;-57
2023/06/02 06:57:56;;;;;;;;;;;;;;;17.27;47.52;100587.41;5061321;28;1332;-55
2023/06/02 07:00:22;;;;;;;;;;;;;;;17.22;47.70;100594.88;5056130;28;1340;-57
2023/06/02 07:02:51;;;;;;;;;;;;;;;17.92;49.34;100591.16;5056139;28;1312;-56
2023/06/02 07:05:16;;;;;;;;;;;;;;;17.52;49.21;100587.56;5056526;28;1379;-56
2023/06/02 07:07:42;;;;;;;;;;;;;;;17.37;48.38;100586.53;5057648;28;1269;-56
2023/06/02 07:10:08;;;;;;;;;;;;;;;17.39;48.32;100584.34;5062806;28;872;-50
2023/06/02 07:12:33;;;;;;;;;;;;;;;18.28;49.69;100594.41;5075984;28;1919;-49
2023/06/02 07:14:59;;;;;;;;;;;;;;;17.65;49.77;100591.63;5076178;28;1122;-51
2023/06/02 07:17:25;;;;;;;;;;;;;;;17.39;48.99;100589.84;5062205;28;1240;-56
2023/06/02 07:19:50;;;;;;;;;;;;;;;17.46;48.09;100589.53;5076335;28;1047;-55
2023/06/02 07:22:16;;;;;;;;;;;;;;;17.31;47.70;100592.38;5077398;28;1110;-55
2023/06/02 07:24:42;;;;;;;;;;;;;;;17.31;47.20;100587.69;5068831;28;1062;-50
2023/06/02 07:27:08;;;;;;;;;;;;;;;17.21;47.64;100587.75;5076178;28;1103;-54
2023/06/02 07:29:33;;;;;;;;;;;;;;;18.06;49.04;100597.66;5075923;28;1042;-53
2023/06/02 07:31:59;;;;;;;;;;;;;;;17.57;48.90;100593.03;5075687;28;1976;-57
2023/06/02 07:34:24;;;;;;;;;;;;;;;17.44;48.39;100597.22;5081569;28;957;-55
2023/06/02 07:36:50;;;;;;;;;;;;;;;17.36;47.95;100598.66;5064471;28;1202;-58
2023/06/02 07:39:16;;;;;;;;;;;;;;;18.23;49.09;100593.66;5059652;28;1000;-56
2023/06/02 07:41:42;;;;;;;;;;;;;;;17.96;49.50;100605.97;5076192;28;1130;-58
2023/06/02 07:44:07;;;;;;;;;;;;;;;17.60;49.04;100601.53;5075598;28;1050;-53
2023/06/02 07:46:33;;;;;;;;;;;;;;;17.51;48.50;100608.72;5079275;28;1185;-54
2023/06/02 07:48:58;;;;;;;;;;;;;;;17.42;47.82;100605.75;5086058;28;1063;-57
2023/06/02 07:51:24;;;;;;;;;;;;;;;17.34;47.63;100609.09;5065868;28;1968;-55
2023/06/02 07:53:49;;;;;;;;;;;;;;;18.28;48.71;100612.88;5075356;28;1027;-54
2023/06/02 07:56:15;;;;;;;;;;;;;;;17.82;49.53;100607.72;5075689;28;1102;-57
2023/06/02 07:58:40;;;;;;;;;;;;;;;17.64;48.84;100610.03;5084379;28;1207;-53
2023/06/02 08:01:06;;;;;;;;;;;;;;;17.59;48.06;100612.81;5065574;28;1046;-56
2023/06/02 08:03:31;;;;;;;;;;;;;;;17.47;47.74;100609.59;5075458;28;1193;-56
2023/06/02 08:05:57;;;;;;;;;;;;;;;17.39;47.23;100611.84;5075695;28;1058;-56
2023/06/02 08:08:22;;;;;;;;;;;;;;;17.31;47.15;100609.66;5076089;28;1067;-56
2023/06/02 08:10:48;;;;;;;;;;;;;;;17.31;46.74;100609.66;5063206;28;963;-53
2023/06/02 08:13:15;;;;;;;;;;;;;;;17.27;46.83;100603.09;5075747;28;1989;-56
2023/06/02 08:15:40;;;;;;;;;;;;;;;18.05;48.56;100612.53;5075824;28;1415;-57
2023/06/02 08:18:11;;;;;;;;;;;;;;;17.69;48.67;100610.00;5076158;28;1046;-56
2023/06/02 08:20:37;;;;;;;;;;;;;;;17.45;48.31;100605.19;5075806;28;1038;-55
2023/06/02 08:23:02;;;;;;;;;;;;;;;17.45;47.47;100598.88;5087688;28;1154;-56
2023/06/02 08:25:28;;;;;;;;;;;;;;;17.28;47.43;100600.06;5074706;28;1093;-55
2023/06/02 08:27:53;;;;;;;;;;;;;;;17.37;46.87;100603.03;5074323;28;1027;-56
2023/06/02 08:30:20;;;;;;;;;;;;;;;18.24;48.30;100598.88;5076668;28;1173;-55
2023/06/02 08:32:48;;;;;;;;;;;;;;;17.65;48.68;100599.84;5079015;28;1906;-56
2023/06/02 08:35:13;;;;;;;;;;;;;;;17.55;48.11;100595.25;5067876;28;900;-56
2023/06/02 08:37:40;;;;;;;;;;;;;;;17.48;47.70;100586.50;5079131;28;1047;-56
2023/06/02 08:40:07;;;;;;;;;;;;;;;17.33;47.32;100601.94;5079001;28;1099;-56
2023/06/02 08:42:32;;;;;;;;;;;;;;;17.29;47.12;100584.38;5079042;28;1139;-56
2023/06/02 08:44:58;;;;;;;;;;;;;;;17.29;46.82;100592.63;5081880;28;1217;-56
2023/06/02 08:47:24;;;;;;;;;;;;;;;17.27;46.59;100586.59;5081017;28;1235;-56
2023/06/02 08:49:49;;;;;;;;;;;;;;;18.05;48.14;100597.97;5078920;28;1073;-56
2023/06/02 08:52:22;;;;;;;;;;;;;;;17.60;48.09;100587.78;5075992;28;1897;-55
2023/06/02 08:54:48;;;;;;;;;;;;;;;17.49;47.68;100593.63;5069283;28;1051;-55
2023/06/02 08:57:16;;;;;;;;;;;;;;;17.28;47.41;100588.25;5078826;28;1182;-56
2023/06/02 08:59:44;;;;;;;;;;;;;;;17.32;46.98;100588.50;5062045;28;948;-55
2023/06/02 09:02:10;;;;;;;;;;;;;;;18.13;48.09;100586.31;5070147;28;1120;-53
2023/06/02 09:04:36;;;;;;;;;;;;;;;17.82;48.83;100591.22;5071248;28;1059;-55
2023/06/02 09:07:13;;;;;;;;;;;;;;;17.65;48.01;100592.41;5062693;28;1265;-56
2023/06/02 09:09:39;;;;;;;;;;;;;;;17.43;47.87;100584.59;5075128;28;1127;-55
2023/06/02 09:12:05;;;;;;;;;;;;;;;17.38;47.36;100590.94;5058175;28;1905;-55
2023/06/02 09:14:30;;;;;;;;;;;;;;;17.36;46.99;100595.91;5056808;28;1312;-55
2023/06/02 09:16:56;;;;;;;;;;;;;;;17.74;47.44;100596.22;5058278;28;1237;-55
2023/06/02 09:19:21;;;;;;;;;;;;;;;17.86;48.29;100600.53;5058372;28;1321;-53
2023/06/02 09:21:47;;;;;;;;;;;;;;;17.43;48.44;100601.91;5060207;28;1258;-55
2023/06/02 09:24:13;;;;;;;;;;;;;;;17.49;47.61;100593.63;5040599;28;1290;-53
2023/06/02 09:26:40;;;;;;;;;;;;;;;17.48;47.15;100598.31;5040016;28;1180;-54
2023/06/02 09:29:07;;;;;;;;;;;;;;;17.40;46.82;100594.25;5043936;28;1291;-51
2023/06/02 09:31:43;;;;;;;;;;;;;;;17.31;46.89;100595.94;5078394;28;1906;-54
2023/06/02 09:34:09;;;;;;;;;;;;;;;18.45;47.72;100594.00;5081899;28;1181;-55
2023/06/02 09:36:36;;;;;;;;;;;;;;;17.64;48.73;100584.47;5070572;28;1206;-54
2023/06/02 09:39:03;;;;;;;;;;;;;;;17.57;48.13;100591.13;5070304;28;1055;-51
2023/06/02 09:41:30;;;;;;;;;;;;;;;17.53;47.58;100586.44;5078215;28;1129;-54
2023/06/02 09:43:56;;;;;;;;;;;;;;;17.54;47.67;100574.34;5078136;28;1086;-47
2023/06/02 09:46:22;;;;;;;;;;;;;;;18.06;48.71;100578.41;5060929;28;1210;-52
2023/06/02 09:48:59;;;;;;;;;;;;;;;17.72;48.39;100576.41;5040040;28;1203;-51
2023/06/02 09:51:25;;;;;;;;;;;;;;;17.61;47.88;100569.34;5075479;28;1901;-56
2023/06/02 09:53:50;;;;;;;;;;;;;;;17.56;47.47;100566.66;5077728;28;1234;-55
2023/06/02 09:56:17;;;;;;;;;;;;;;;17.50;47.02;100574.13;5077236;28;1214;-55
2023/06/02 09:58:43;;;;;;;;;;;;;;;17.44;46.79;100576.06;5052383;28;1344;-54
2023/06/02 10:01:11;;;;;;;;;;;;;;;18.00;47.58;100570.47;5057111;28;1301;-52
2023/06/02 10:03:37;;;;;;;;;;;;;;;18.01;48.38;100558.38;5061268;28;1385;-56
2023/06/02 10:06:07;;;;;;;;;;;;;;;17.75;47.98;100564.88;5078007;28;1049;-56
2023/06/02 10:08:38;;;;;;;;;;;;;;;17.62;47.72;100560.00;5077417;28;1073;-56
2023/06/02 10:11:16;;;;;;;;;;;;;;;17.52;47.46;100560.91;5068575;28;1070;-56
2023/06/02 10:14:00;;;;;;;;;;;;;;;17.52;47.08;100555.41;5064275;28;1083;-56
2023/06/02 10:16:44;;;;;;;;;;;;;;;17.41;46.99;100548.31;5077355;28;1057;-55
2023/06/02 10:19:22;;;;;;;;;;;;;;;17.31;46.82;100549.22;5077571;28;1449;-55
2023/06/02 10:21:47;;;;;;;;;;;;;;;17.26;46.71;100552.81;5056500;28;1092;-52
2023/06/02 10:24:13;;;;;;;;;;;;;;;17.29;46.50;100545.91;5061010;28;1297;-52
2023/06/02 10:26:42;;;;;;;;;;;;;;;17.90;47.40;100560.34;5056488;28;1079;-56
2023/06/02 10:29:08;;;;;;;;;;;;;;;17.76;48.47;100550.00;5038962;28;1448;-56
2023/06/02 10:31:33;;;;;;;;;;;;;;;17.56;48.08;100542.72;5045577;28;1981;-56
2023/06/02 10:34:00;;;;;;;;;;;;;;;17.44;47.53;100534.81;5077061;28;1233;-55
2023/06/02 10:36:45;;;;;;;;;;;;;;;17.43;46.96;100538.69;5084268;28;857;-57
2023/06/02 10:39:29;;;;;;;;;;;;;;;17.83;47.71;100538.66;5076789;28;1134;-55
2023/06/02 10:42:24;;;;;;;;;;;;;;;17.83;48.48;100532.34;5075900;28;1383;-54
2023/06/02 10:44:52;;;;;;;;;;;;;;;17.63;47.97;100539.66;5059550;28;1221;-55
2023/06/02 10:47:17;;;;;;;;;;;;;;;17.56;47.63;100539.16;5069207;28;988;-54
2023/06/02 10:49:55;;;;;;;;;;;;;;;17.48;47.10;100539.78;5071586;28;1114;-56
2023/06/02 10:52:21;;;;;;;;;;;;;;;17.47;46.79;100535.38;5076547;28;1890;-54
2023/06/02 10:55:05;;;;;;;;;;;;;;;17.38;46.63;100541.47;5076617;28;1087;-54
2023/06/02 10:57:49;;;;;;;;;;;;;;;17.38;46.50;100533.22;5076551;28;1141;-56
2023/06/02 11:00:34;;;;;;;;;;;;;;;17.43;46.70;100540.59;5074055;28;1015;-54
2023/06/02 11:02:59;;;;;;;;;;;;;;;17.97;48.05;100533.34;5056378;28;1401;-53
2023/06/02 11:05:25;;;;;;;;;;;;;;;17.62;48.18;100538.00;5055687;28;1203;-51
2023/06/02 11:08:10;;;;;;;;;;;;;;;17.50;47.63;100530.13;5055556;28;1171;-54
2023/06/02 11:10:54;;;;;;;;;;;;;;;17.45;47.34;100519.16;5077553;28;1253;-53
2023/06/02 11:13:20;;;;;;;;;;;;;;;17.50;46.77;100521.03;5066423;28;1906;-53
2023/06/02 11:15:55;;;;;;;;;;;;;;;17.37;46.74;100519.75;5059693;28;1157;-53
2023/06/02 11:18:31;;;;;;;;;;;;;;;17.40;46.39;100517.28;5068163;28;1028;-51
2023/06/02 11:20:56;;;;;;;;;;;;;;;17.37;46.50;100517.81;5075972;28;988;-47
2023/06/02 11:23:22;;;;;;;;;;;;;;;18.39;47.75;100517.25;5083129;28;1141;-52
2023/06/02 11:25:47;;;;;;;;;;;;;;;17.75;48.31;100509.88;5075780;28;1042;-57
2023/06/02 11:28:22;;;;;;;;;;;;;;;17.58;47.87;100507.50;5075822;28;1125;-54
2023/06/02 11:31:03;;;;;;;;;;;;;;;17.49;47.33;100513.91;5076376;28;1086;-54
2023/06/02 11:33:33;;;;;;;;;;;;;;;17.51;47.04;100511.69;5075298;28;1910;-57
2023/06/02 11:35:59;;;;;;;;;;;;;;;18.02;48.16;100514.06;5067417;28;910;-57
2023/06/02 11:38:32;;;;;;;;;;;;;;;17.77;47.79;100523.31;5075877;28;1074;-56
2023/06/02 11:41:10;;;;;;;;;;;;;;;17.61;47.20;100515.19;5075289;28;1063;-56
2023/06/02 11:43:36;;;;;;;;;;;;;;;17.52;47.02;100510.59;5075814;28;1170;-57
2023/06/02 11:46:05;;;;;;;;;;;;;;;17.50;46.54;100507.31;5076082;28;1137;-55
2023/06/02 11:48:30;;;;;;;;;;;;;;;17.54;46.15;100511.13;5086408;28;1190;-54
2023/06/02 11:50:57;;;;;;;;;;;;;;;17.42;46.22;100511.50;5058253;28;1121;-55
2023/06/02 11:53:22;;;;;;;;;;;;;;;17.38;46.15;100497.50;5075443;28;1901;-55
2023/06/02 11:55:48;;;;;;;;;;;;;;;17.30;46.44;100500.84;5067785;28;1137;-55
2023/06/02 11:58:18;;;;;;;;;;;;;;;17.33;46.00;100500.25;5055110;28;1071;-55
2023/06/02 12:00:44;;;;;;;;;;;;;;;18.49;47.27;100500.63;5078549;28;916;-56
2023/06/02 12:03:12;;;;;;;;;;;;;;;17.77;48.23;100501.31;5075098;28;1245;-55
2023/06/02 12:05:41;;;;;;;;;;;;;;;17.67;47.55;100502.22;5078806;28;1107;-55
2023/06/02 12:08:20;;;;;;;;;;;;;;;17.53;47.18;100506.72;5078942;28;1226;-53
2023/06/02 12:10:49;;;;;;;;;;;;;;;17.42;46.94;100506.81;5079602;28;1191;-53
2023/06/02 12:13:24;;;;;;;;;;;;;;;17.40;46.75;100503.53;5088769;28;1997;-52
2023/06/02 12:15:50;;;;;;;;;;;;;;;17.40;46.20;100498.03;5071964;28;1240;-55
2023/06/02 12:18:15;;;;;;;;;;;;;;;18.19;47.13;100507.28;5079670;28;1154;-54
2023/06/02 12:20:41;;;;;;;;;;;;;;;17.65;47.87;100511.88;5061722;28;1305;-53
2023/06/02 12:23:10;;;;;;;;;;;;;;;17.56;47.35;100514.41;5060387;28;1062;-52
2023/06/02 12:25:35;;;;;;;;;;;;;;;17.52;46.83;100516.09;5062027;28;1292;-53
2023/06/02 12:28:09;;;;;;;;;;;;;;;17.87;47.55;100503.97;5059084;28;1206;-52
2023/06/02 12:30:34;;;;;;;;;;;;;;;18.03;47.99;100503.88;5076864;28;1230;-53
2023/06/02 12:33:07;;;;;;;;;;;;;;;17.72;47.69;100510.41;5069551;28;1905;-54
2023/06/02 12:35:32;;;;;;;;;;;;;;;17.60;47.16;100494.31;5082724;28;1158;-53
2023/06/02 12:37:58;;;;;;;;;;;;;;;17.53;47.09;100501.22;5078117;28;1207;-54
2023/06/02 12:40:24;;;;;;;;;;;;;;;17.47;46.70;100497.69;5076646;28;1159;-55
2023/06/02 12:42:49;;;;;;;;;;;;;;;17.37;46.64;100497.78;5069577;28;1062;-55
2023/06/02 12:45:14;;;;;;;;;;;;;;;17.43;46.39;100488.38;5058327;28;1285;-55
2023/06/02 12:47:40;;;;;;;;;;;;;;;18.39;47.21;100490.53;5070145;28;1269;-53
2023/06/02 12:50:08;;;;;;;;;;;;;;;17.79;48.12;100483.44;5084904;28;1061;-55